Apopka, Florida
Current Conditions -  °F | °C
As of 11:53 AM on Thursday 23 Oct 2014 (Local Time) from KORL Reporting Station
Clear Clear  
Wind Chill: 78°   Ceiling: Unl
Heat Index: 79°   Visibility: 10mi
Dew Point: 58°   Wind: 12mph
Humidity: 50%   Direction: 40°NE
Pressure: 30.01"   Gusts: NA
Location:  28.67°N, 81.51°W
Report Text: KORL 231553Z 04010KT 10SM CLR 26/14 A3001 RMK AO2 SLP167 T02560144
Loading
Personal Weather Stations






























Interactive Weather Map
Tropical Storm Tracking
New forecast layout! Learn more

10-Day Weather Forecast

Advertisements
Track Severe Weather on mobile